Time;durP1;ratioP1;P1;durP2;ratioP2;P2;SDS_P1;SDS_P2;PMS_P1;PMS_P2;Temp;Humidity;BMP_temperature;BMP_pressure;BME280_temperature;BME280_humidity;BME280_pressure;Samples;Min_cycle;Max_cycle;Signal;HPM_P1;HPM_P2
2022/04/27 00:00:15;;;;;;;14.30;3.55;;;;;;;;;;4876308;29;20053;-73
2022/04/27 00:02:41;;;;;;;13.88;3.45;;;;;;;;;;4864631;29;20443;-73
2022/04/27 00:05:08;;;;;;;11.38;3.50;;;;;;;;;;4858031;29;20053;-73
2022/04/27 00:07:34;;;;;;;15.80;4.03;;;;;;;;;;4853259;29;20048;-73
2022/04/27 00:10:00;;;;;;;11.05;4.18;;;;;;;;;;4876535;29;20052;-72
2022/04/27 00:12:26;;;;;;;10.55;3.42;;;;;;;;;;4865492;29;20458;-72
2022/04/27 00:14:52;;;;;;;11.15;3.60;;;;;;;;;;4878600;29;20041;-72
2022/04/27 00:17:19;;;;;;;9.10;3.63;;;;;;;;;;4865659;29;20041;-73
2022/04/27 00:19:45;;;;;;;11.60;3.95;;;;;;;;;;4868131;29;20041;-73
2022/04/27 00:22:11;;;;;;;7.07;4.00;;;;;;;;;;4883090;29;20084;-73
2022/04/27 00:24:39;;;;;;;11.55;3.88;;;9.50;99.20;;;;;;4897320;29;20068;-73
2022/04/27 00:27:05;;;;;;;11.65;3.45;;;;;;;;;;4851391;29;20128;-73
2022/04/27 00:29:31;;;;;;;16.25;3.38;;;;;;;;;;4871721;29;20185;-73
2022/04/27 00:31:57;;;;;;;11.50;3.10;;;;;;;;;;4863478;29;20056;-73
2022/04/27 00:34:23;;;;;;;12.75;3.47;;;;;;;;;;4864645;29;20045;-73
2022/04/27 00:36:49;;;;;;;11.75;3.63;;;;;;;;;;4881772;29;20044;-73
2022/04/27 00:39:17;;;;;;;5.72;3.10;;;;;;;;;;4882949;29;20052;-73
2022/04/27 00:41:58;;;;;;;8.23;3.33;;;;;;;;;;4880480;29;20053;-73
2022/04/27 00:44:34;;;;;;;8.80;3.10;;;;;;;;;;4867625;29;20080;-72
2022/04/27 00:47:02;;;;;;;12.60;3.20;;;;;;;;;;4865084;29;20056;-71
2022/04/27 00:49:29;;;;;;;8.40;2.88;;;;;;;;;;4864242;29;20091;-72
2022/04/27 00:51:55;;;;;;;10.32;3.10;;;;;;;;;;4893589;29;20097;-71
2022/04/27 00:54:22;;;;;;;8.40;2.92;;;9.40;97.30;;;;;;4864164;29;20049;-71
2022/04/27 00:56:51;;;;;;;7.82;2.80;;;8.40;99.90;;;;;;4879281;29;20397;-71
2022/04/27 00:59:18;;;;;;;6.38;2.58;;;;;;;;;;4858790;29;20109;-71
2022/04/27 01:01:44;;;;;;;3.65;2.28;;;;;;;;;;4862818;29;20048;-71
2022/04/27 01:04:10;;;;;;;7.95;2.80;;;;;;;;;;4883018;29;20048;-72
2022/04/27 01:06:38;;;;;;;6.60;2.45;;;9.30;96.50;;;;;;4855143;29;20124;-71
2022/04/27 01:09:05;;;;;;;3.22;2.13;;;;;;;;;;4870146;29;20076;-72
2022/04/27 01:11:32;;;;;;;7.90;2.90;;;9.30;96.00;;;;;;4877894;29;20080;-72
2022/04/27 01:13:58;;;;;;;8.70;3.20;;;;;;;;;;4879322;29;20049;-72
2022/04/27 01:16:25;;;;;;;8.70;2.97;;;;;;;;;;4857843;29;20037;-71
2022/04/27 01:18:51;;;;;;;6.43;2.58;;;;;;;;;;4871470;29;20059;-71
2022/04/27 01:21:18;;;;;;;7.15;2.83;;;;;;;;;;4858605;29;20188;-71
2022/04/27 01:23:44;;;;;;;5.82;2.92;;;10.20;98.70;;;;;;4882010;29;20052;-71
2022/04/27 01:26:10;;;;;;;5.55;2.50;;;;;;;;;;4875216;29;20049;-71
2022/04/27 01:28:38;;;;;;;6.07;2.75;;;9.40;95.10;;;;;;4864772;29;20060;-72
2022/04/27 01:31:11;;;;;;;5.65;2.78;;;;;;;;;;4878548;29;20165;-73
2022/04/27 01:33:38;;;;;;;4.22;2.80;;;;;;;;;;4866944;29;20048;-72
2022/04/27 01:36:08;;;;;;;6.32;2.80;;;9.40;94.80;;;;;;4877125;29;20045;-71
2022/04/27 01:38:38;;;;;;;9.02;2.78;;;;;;;;;;4863787;29;20036;-72
2022/04/27 01:41:05;;;;;;;6.25;3.03;;;9.40;94.70;;;;;;4850590;29;20502;-72
2022/04/27 01:43:33;;;;;;;5.57;2.80;;;;;;;;;;4863168;29;20044;-72
2022/04/27 01:45:59;;;;;;;8.27;3.10;;;;;;;;;;4894515;29;20109;-72
2022/04/27 01:48:26;;;;;;;4.80;2.90;;;;;;;;;;4873689;29;20045;-72
2022/04/27 01:50:53;;;;;;;5.50;3.33;;;;;;;;;;4864367;29;20469;-71
2022/04/27 01:56:04;;;;;;;8.30;3.25;;;8.80;98.10;;;;;;4896905;29;20056;-72
2022/04/27 01:58:31;;;;;;;9.65;3.42;;;;;;;;;;4873029;29;20049;-72
2022/04/27 02:00:57;;;;;;;7.18;3.00;;;;;;;;;;4880395;29;20402;-72
2022/04/27 02:03:24;;;;;;;8.18;3.92;;;;;;;;;;4894148;29;20098;-72
2022/04/27 02:05:52;;;;;;;7.85;3.15;;;9.20;94.30;;;;;;4862964;29;20128;-72
2022/04/27 02:08:18;;;;;;;7.22;4.07;;;;;;;;;;4845842;29;20049;-72
2022/04/27 02:10:44;;;;;;;5.18;3.08;;;;;;;;;;4863060;29;20052;-71
2022/04/27 02:13:11;;;;;;;5.55;3.22;;;;;;;;;;4872800;29;20494;-72
2022/04/27 02:15:38;;;;;;;9.60;3.35;;;9.30;94.90;;;;;;4862980;29;20524;-72
2022/04/27 02:18:05;;;;;;;10.80;3.70;;;;;;;;;;4893529;29;20088;-71
2022/04/27 02:20:31;;;;;;;8.45;3.75;;;;;;;;;;4893378;29;20093;-72
2022/04/27 02:22:57;;;;;;;6.93;4.28;;;;;;;;;;4877342;29;20089;-72
2022/04/27 02:25:23;;;;;;;10.70;4.03;;;;;;;;;;4862730;29;20053;-72
2022/04/27 02:27:50;;;;;;;8.52;4.00;;;;;;;;;;4847798;29;20104;-72
2022/04/27 02:30:17;;;;;;;8.57;4.10;;;9.20;94.60;;;;;;4862530;29;20041;-72
2022/04/27 02:32:45;;;;;;;6.97;3.63;;;;;;;;;;4858558;29;20072;-72
2022/04/27 02:35:11;;;;;;;6.53;3.58;;;;;;;;;;4881246;29;20084;-72
2022/04/27 02:37:38;;;;;;;8.52;3.88;;;;;;;;;;4840307;29;20045;-72
2022/04/27 02:40:04;;;;;;;9.40;3.60;;;;;;;;;;4875262;29;20119;-72
2022/04/27 02:42:31;;;;;;;7.13;3.88;;;;;;;;;;4872674;29;20173;-73
2022/04/27 02:44:58;;;;;;;6.75;3.60;;;;;;;;;;4893764;29;20093;-72
2022/04/27 02:47:24;;;;;;;10.10;3.67;;;;;;;;;;4863608;29;20037;-72
2022/04/27 02:52:35;;;;;;;8.60;4.30;;;;;;;;;;4893389;29;20093;-72
2022/04/27 02:55:01;;;;;;;7.43;3.35;;;;;;;;;;4863823;29;20048;-72
2022/04/27 02:57:27;;;;;;;10.27;3.95;;;;;;;;;;4884027;29;20049;-72
2022/04/27 02:59:53;;;;;;;5.85;3.63;;;;;;;;;;4869489;29;20088;-73
2022/04/27 03:02:19;;;;;;;10.98;3.95;;;;;;;;;;4880345;29;20466;-72
2022/04/27 03:04:45;;;;;;;8.45;3.67;;;;;;;;;;4866314;29;20045;-73
2022/04/27 03:07:11;;;;;;;6.97;3.83;;;9.60;98.70;;;;;;4869185;29;20068;-73
2022/04/27 03:09:37;;;;;;;10.43;3.58;;;;;;;;;;4884823;29;20087;-73
2022/04/27 03:12:03;;;;;;;8.02;3.63;;;;;;;;;;4881442;29;20092;-72
2022/04/27 03:14:30;;;;;;;6.47;3.25;;;;;;;;;;4865615;29;20044;-73
2022/04/27 03:16:56;;;;;;;11.48;3.65;;;9.60;95.70;;;;;;4868898;29;20128;-73
2022/04/27 03:19:22;;;;;;;8.55;3.33;;;;;;;;;;4868827;29;20045;-73
2022/04/27 03:21:48;;;;;;;13.18;3.65;;;;;;;;;;4862768;29;20104;-73
2022/04/27 03:24:14;;;;;;;10.20;4.32;;;;;;;;;;4882225;29;20060;-72
2022/04/27 03:26:41;;;;;;;7.68;3.55;;;;;;;;;;4873605;29;20049;-73
2022/04/27 03:29:07;;;;;;;10.20;4.25;;;;;;;;;;4869569;29;20414;-72
2022/04/27 03:31:33;;;;;;;13.20;3.67;;;;;;;;;;4865792;29;20045;-73
2022/04/27 03:33:59;;;;;;;6.03;3.60;;;;;;;;;;4878855;29;20068;-73
2022/04/27 03:36:25;;;;;;;7.35;3.58;;;;;;;;;;4879064;29;20072;-73
2022/04/27 03:38:52;;;;;;;9.48;3.45;;;;;;;;;;4861709;29;20509;-73
2022/04/27 03:41:20;;;;;;;9.80;3.47;;;;;;;;;;4884474;29;20048;-73
2022/04/27 03:43:46;;;;;;;9.68;3.50;;;9.10;95.30;;;;;;4873759;29;20049;-73
2022/04/27 03:46:13;;;;;;;8.73;3.70;;;;;;;;;;4865973;29;20041;-73
2022/04/27 03:48:39;;;;;;;8.50;3.45;;;;;;;;;;4874514;29;20359;-73
2022/04/27 03:51:06;;;;;;;7.47;3.80;;;;;;;;;;4853956;29;20124;-72
2022/04/27 03:53:32;;;;;;;7.47;3.70;;;;;;;;;;4872825;29;20072;-72
2022/04/27 03:55:58;;;;;;;5.57;3.40;;;;;;;;;;4861584;29;20177;-72
2022/04/27 03:58:24;;;;;;;6.18;3.60;;;;;;;;;;4870514;29;20556;-72
2022/04/27 04:00:50;;;;;;;10.38;3.45;;;;;;;;;;4880580;29;20057;-72
2022/04/27 04:03:16;;;;;;;12.73;4.00;;;;;;;;;;4854375;29;20032;-72
2022/04/27 04:05:42;;;;;;;5.30;3.33;;;;;;;;;;4863622;29;20161;-72
2022/04/27 04:08:08;;;;;;;9.82;3.88;;;;;;;;;;4868105;29;20052;-72
2022/04/27 04:10:34;;;;;;;13.82;4.45;;;;;;;;;;4863476;29;20041;-72
2022/04/27 04:13:01;;;;;;;11.30;3.50;;;;;;;;;;4866552;29;20045;-72
2022/04/27 04:15:27;;;;;;;9.52;3.63;;;;;;;;;;4850427;29;20105;-72
2022/04/27 04:17:54;;;;;;;9.25;3.60;;;;;;;;;;4865068;29;20251;-71
2022/04/27 04:20:20;;;;;;;9.50;3.70;;;;;;;;;;4864857;29;20162;-72
2022/04/27 04:22:47;;;;;;;10.35;4.10;;;9.20;95.60;;;;;;4880150;29;20041;-71
2022/04/27 04:30:43;;;;;;;8.43;4.18;;;;;;;;;;4869890;29;20048;-72
2022/04/27 04:33:09;;;;;;;10.65;4.22;;;;;;;;;;4874349;29;20100;-72
2022/04/27 04:35:35;;;;;;;13.52;4.22;;;;;;;;;;4881014;29;20197;-72
2022/04/27 04:38:02;;;;;;;9.88;4.20;;;;;;;;;;4869161;29;20036;-72
2022/04/27 04:40:28;;;;;;;12.35;4.53;;;;;;;;;;4865082;29;20045;-71
2022/04/27 04:42:54;;;;;;;21.20;4.78;;;;;;;;;;4878261;29;20493;-72
2022/04/27 04:45:20;;;;;;;10.70;4.18;;;8.90;99.50;;;;;;4851040;29;20066;-72
2022/04/27 04:47:46;;;;;;;10.93;4.20;;;;;;;;;;4895851;29;20052;-72
2022/04/27 04:50:12;;;;;;;11.80;4.13;;;;;;;;;;4864788;29;20048;-73
2022/04/27 04:52:38;;;;;;;11.20;4.57;;;;;;;;;;4878112;29;20076;-73
2022/04/27 04:55:05;;;;;;;11.80;3.78;;;;;;;;;;4877825;29;20123;-74
2022/04/27 04:57:31;;;;;;;12.27;3.95;;;;;;;;;;4882571;29;20041;-71
2022/04/27 04:59:58;;;;;;;13.75;4.60;;;;;;;;;;4854796;29;20077;-73
2022/04/27 05:02:24;;;;;;;17.85;4.53;;;10.00;99.90;;;;;;4895047;29;20052;-72
2022/04/27 05:04:51;;;;;;;10.15;4.15;;;;;;;;;;4871220;29;20045;-72
2022/04/27 05:07:20;;;;;;;17.13;5.05;;;;;;;;;;4849890;29;20052;-72
2022/04/27 05:09:46;;;;;;;16.20;5.07;;;;;;;;;;4872289;29;20052;-72
2022/04/27 05:12:12;;;;;;;16.08;4.95;;;;;;;;;;4871017;29;20049;-71
2022/04/27 05:14:38;;;;;;;11.25;4.47;;;;;;;;;;4872624;29;20457;-72
2022/04/27 05:17:04;;;;;;;9.07;4.05;;;;;;;;;;4882196;29;20401;-72
2022/04/27 05:19:31;;;;;;;9.98;4.32;;;;;;;;;;4879179;29;20048;-71
2022/04/27 05:21:57;;;;;;;14.23;4.30;;;;;;;;;;4867333;29;20083;-71
2022/04/27 05:24:23;;;;;;;15.63;4.15;;;;;;;;;;4860145;29;20450;-72
2022/04/27 05:26:49;;;;;;;13.40;4.03;;;;;;;;;;4871165;29;20160;-72
2022/04/27 05:32:03;;;;;;;17.77;4.18;;;;;;;;;;4894899;29;20053;-72
2022/04/27 05:34:30;;;;;;;14.30;4.40;;;;;;;;;;4875588;29;20049;-72
2022/04/27 05:36:59;;;;;;;8.85;4.13;;;9.40;95.60;;;;;;4879114;29;20048;-72
2022/04/27 05:39:25;;;;;;;20.77;4.63;;;;;;;;;;4873370;29;20482;-72
2022/04/27 05:41:53;;;;;;;13.15;5.00;;;9.20;95.90;;;;;;4857722;29;20578;-72
2022/04/27 05:44:23;;;;;;;14.48;4.63;;;9.20;96.40;;;;;;4894713;29;20071;-72
2022/04/27 05:46:53;;;;;;;14.48;4.93;;;;;;;;;;4853103;29;20049;-71
2022/04/27 05:49:20;;;;;;;16.08;5.43;;;9.40;96.40;;;;;;4862859;29;20040;-72
2022/04/27 05:51:46;;;;;;;15.23;4.85;;;;;;;;;;4863123;29;20037;-71
2022/04/27 05:54:16;;;;;;;18.40;5.70;;;;;;;;;;4847241;29;20050;-72
2022/04/27 05:56:43;;;;;;;21.13;5.03;;;;;;;;;;4881624;29;20043;-71
2022/04/27 05:59:09;;;;;;;15.98;5.07;;;;;;;;;;4881619;29;20128;-71
2022/04/27 06:01:36;;;;;;;22.25;5.05;;;9.50;99.90;;;;;;4829674;29;20080;-71
2022/04/27 06:04:02;;;;;;;16.70;5.32;;;;;;;;;;4873171;29;20095;-71
2022/04/27 06:06:28;;;;;;;18.35;5.00;;;;;;;;;;4863990;29;20501;-71
2022/04/27 06:08:54;;;;;;;28.00;5.05;;;;;;;;;;4863003;29;20060;-71
2022/04/27 06:11:20;;;;;;;17.98;5.57;;;;;;;;;;4877087;29;20171;-72
2022/04/27 06:13:47;;;;;;;24.92;5.38;;;;;;;;;;4856875;29;20060;-72
2022/04/27 06:16:13;;;;;;;18.27;5.25;;;9.30;97.60;;;;;;4853823;29;20451;-72
2022/04/27 06:18:40;;;;;;;22.67;5.20;;;;;;;;;;4894214;29;20049;-71
2022/04/27 06:21:10;;;;;;;19.13;6.15;;;9.70;99.90;;;;;;4877857;29;20049;-71
2022/04/27 06:23:39;;;;;;;28.27;5.57;;;;;;;;;;4854530;29;20060;-71
2022/04/27 06:26:06;;;;;;;27.27;5.22;;;;;;;;;;4857248;29;20049;-71
2022/04/27 06:28:33;;;;;;;32.72;7.32;;;9.20;97.50;;;;;;4865985;29;20469;-71
2022/04/27 06:30:59;;;;;;;23.75;5.43;;;;;;;;;;4870210;29;20049;-71
2022/04/27 06:33:25;;;;;;;25.48;5.65;;;;;;;;;;4862869;29;20379;-71
2022/04/27 06:35:52;;;;;;;27.98;4.90;;;;;;;;;;4857117;29;20131;-71
2022/04/27 06:38:18;;;;;;;37.15;5.22;;;;;;;;;;4866002;29;20044;-71
2022/04/27 06:40:44;;;;;;;22.58;4.53;;;;;;;;;;4879693;29;20036;-71
2022/04/27 06:43:10;;;;;;;22.83;4.28;;;;;;;;;;4881313;29;20045;-72
2022/04/27 06:45:36;;;;;;;23.92;5.05;;;;;;;;;;4873233;29;20074;-72
2022/04/27 06:48:03;;;;;;;25.42;4.45;;;9.20;98.10;;;;;;4863039;29;20402;-73
2022/04/27 06:50:29;;;;;;;26.30;4.95;;;;;;;;;;4866625;29;20451;-72
2022/04/27 06:52:59;;;;;;;26.30;4.75;;;;;;;;;;4863764;29;20044;-72
2022/04/27 06:55:25;;;;;;;25.13;5.45;;;9.20;97.40;;;;;;4874952;29;20052;-72
2022/04/27 06:57:52;;;;;;;17.45;4.28;;;;;;;;;;4880845;29;20401;-74
2022/04/27 07:00:18;;;;;;;30.30;4.43;;;;;;;;;;4879258;29;20083;-74
2022/04/27 07:02:44;;;;;;;24.85;4.28;;;;;;;;;;4862954;29;20048;-75
2022/04/27 07:05:16;;;;;;;32.92;4.35;;;;;;;;;;4862874;29;20045;-75
2022/04/27 07:07:43;;;;;;;23.85;4.82;;;;;;;;;;4864061;29;20050;-76
2022/04/27 07:10:09;;;;;;;16.40;3.65;;;;;;;;;;4892918;29;20178;-74
2022/04/27 07:12:35;;;;;;;20.73;4.65;;;;;;;;;;4862166;29;20048;-75
2022/04/27 07:15:02;;;;;;;22.85;4.40;;;;;;;;;;4862785;29;20052;-74
2022/04/27 07:17:28;;;;;;;21.20;4.03;;;;;;;;;;4892677;29;20486;-75
2022/04/27 07:19:54;;;;;;;20.00;4.18;;;;;;;;;;4863460;29;20045;-75
2022/04/27 07:22:20;;;;;;;20.00;4.22;;;;;;;;;;4877554;29;20128;-75
2022/04/27 07:24:47;;;;;;;16.55;3.70;;;;;;;;;;4877788;29;20061;-74
2022/04/27 07:27:13;;;;;;;24.88;4.70;;;;;;;;;;4878136;29;20131;-74
2022/04/27 07:29:39;;;;;;;31.63;4.10;;;;;;;;;;4863223;29;20056;-74
2022/04/27 07:32:05;;;;;;;19.52;3.53;;;;;;;;;;4875500;29;20390;-73
2022/04/27 07:34:32;;;;;;;18.60;4.30;;;;;;;;;;4865517;29;20060;-75
2022/04/27 07:36:58;;;;;;;19.83;3.80;;;;;;;;;;4869323;29;20068;-74
2022/04/27 07:39:27;;;;;;;15.10;3.30;;;9.60;96.60;;;;;;4864296;29;20091;-74
2022/04/27 07:41:53;;;;;;;20.20;4.78;;;;;;;;;;4864695;29;20037;-74
2022/04/27 07:44:19;;;;;;;19.90;4.35;;;;;;;;;;4884148;29;20044;-75
2022/04/27 07:46:47;;;;;;;23.23;4.68;;;;;;;;;;4874678;29;20049;-73
2022/04/27 07:49:21;;;;;;;19.35;3.70;;;9.60;95.70;;;;;;4896324;29;20161;-74
2022/04/27 07:51:49;;;;;;;20.02;4.82;;;9.70;96.50;;;;;;4856428;29;20052;-74
2022/04/27 07:54:15;;;;;;;15.25;3.10;;;;;;;;;;4870561;29;20508;-75
2022/04/27 07:56:41;;;;;;;23.85;3.97;;;;;;;;;;4876009;29;20124;-73
2022/04/27 07:59:07;;;;;;;19.95;4.00;;;10.20;99.80;;;;;;4852342;29;20051;-74
2022/04/27 08:01:33;;;;;;;18.95;4.13;;;;;;;;;;4858131;29;20045;-74
2022/04/27 08:03:59;;;;;;;25.85;4.22;;;;;;;;;;4896325;29;20041;-74
2022/04/27 08:06:25;;;;;;;22.20;4.00;;;;;;;;;;4871138;29;20036;-74
2022/04/27 08:08:51;;;;;;;14.80;3.38;;;;;;;;;;4873439;29;20047;-74
2022/04/27 08:11:17;;;;;;;27.10;3.53;;;;;;;;;;4870822;29;20127;-74
2022/04/27 08:13:44;;;;;;;19.38;3.10;;;;;;;;;;4871733;29;20048;-73
2022/04/27 08:16:13;;;;;;;19.80;5.70;;;;;;;;;;4857420;29;20112;-74
2022/04/27 08:18:39;;;;;;;26.23;5.20;;;10.10;95.50;;;;;;4878613;29;20048;-73
2022/04/27 08:21:14;;;;;;;16.13;3.53;;;;;;;;;;4895739;29;20036;-73
2022/04/27 08:23:42;;;;;;;17.73;3.50;;;10.00;95.10;;;;;;4869764;29;20053;-74
2022/04/27 08:26:10;;;;;;;22.25;4.10;;;10.10;95.50;;;;;;4879337;29;20117;-74
2022/04/27 08:28:39;;;;;;;21.67;3.92;;;;;;;;;;4881610;29;20045;-74
2022/04/27 08:31:07;;;;;;;23.42;4.30;;;10.20;95.30;;;;;;4865573;29;20045;-74
2022/04/27 08:33:33;;;;;;;22.80;4.30;;;;;;;;;;4871788;29;20049;-74
2022/04/27 08:35:59;;;;;;;14.15;3.08;;;;;;;;;;4865322;29;20580;-74
2022/04/27 08:38:26;;;;;;;18.98;4.43;;;10.50;95.20;;;;;;4865485;29;20045;-73
2022/04/27 08:40:53;;;;;;;25.00;4.85;;;;;;;;;;4849396;29;20049;-74
2022/04/27 08:43:19;;;;;;;19.52;3.53;;;;;;;;;;4876424;29;20413;-74
2022/04/27 08:45:45;;;;;;;26.65;4.10;;;;;;;;;;4866124;29;20049;-74
2022/04/27 08:48:14;;;;;;;19.70;3.53;;;10.40;94.90;;;;;;4870953;29;20049;-74
2022/04/27 08:50:40;;;;;;;12.52;3.17;;;10.50;94.50;;;;;;4856952;29;20073;-74
2022/04/27 08:53:07;;;;;;;22.35;4.00;;;;;;;;;;4893449;29;20045;-75
2022/04/27 08:55:35;;;;;;;23.10;3.92;;;10.60;94.60;;;;;;4859046;29;20075;-73
2022/04/27 08:58:12;;;;;;;14.13;3.38;;;;;;;;;;4871950;29;20040;-72
2022/04/27 09:00:38;;;;;;;29.83;4.28;;;11.60;97.60;;;;;;4874815;29;20043;-73
2022/04/27 09:03:24;;;;;;;28.48;4.25;;;;;;;;;;4879188;29;20041;-74
2022/04/27 09:05:51;;;;;;;18.33;4.70;;;11.00;94.20;;;;;;4870570;29;20041;-75
2022/04/27 09:08:18;;;;;;;20.08;3.40;;;;;;;;;;4867089;29;20497;-74
2022/04/27 09:10:44;;;;;;;22.98;4.10;;;;;;;;;;4884895;29;20035;-74
2022/04/27 09:13:10;;;;;;;21.85;3.75;;;;;;;;;;4861512;29;20037;-73
2022/04/27 09:15:36;;;;;;;13.30;4.15;;;;;;;;;;4856830;29;20150;-73
2022/04/27 09:20:48;;;;;;;19.15;4.45;;;;;;;;;;4893374;29;20092;-73
2022/04/27 09:23:26;;;;;;;25.95;4.50;;;;;;;;;;4893900;29;20507;-72
2022/04/27 09:25:57;;;;;;;11.88;3.33;;;11.30;94.10;;;;;;4867637;29;20553;-73
2022/04/27 09:28:26;;;;;;;15.23;3.22;;;11.30;93.60;;;;;;4870028;29;20084;-71
2022/04/27 09:30:52;;;;;;;26.48;4.60;;;;;;;;;;4871816;29;20462;-71
2022/04/27 09:33:36;;;;;;;22.50;3.92;;;;;;;;;;4863998;29;20354;-73
2022/04/27 09:36:17;;;;;;;15.65;4.05;;;12.30;97.00;;;;;;4864732;29;20128;-76
2022/04/27 09:38:43;;;;;;;16.15;3.70;;;;;;;;;;4894576;29;20033;-73
2022/04/27 09:41:09;;;;;;;14.32;3.10;;;;;;;;;;4872396;29;20048;-75
2022/04/27 09:43:49;;;;;;;20.17;3.47;;;11.50;92.90;;;;;;4866040;29;20048;-72
2022/04/27 09:46:25;;;;;;;25.58;4.45;;;12.20;95.60;;;;;;4863432;29;20040;-71
2022/04/27 09:49:09;;;;;;;23.25;3.80;;;11.50;92.90;;;;;;4862788;29;20049;-73
2022/04/27 09:51:36;;;;;;;27.85;3.90;;;11.60;93.40;;;;;;4895067;29;20090;-74
2022/04/27 09:54:04;;;;;;;17.20;3.53;;;11.50;93.20;;;;;;4880283;29;20481;-82
2022/04/27 09:56:39;;;;;;;25.05;3.45;;;;;;;;;;4850294;29;20040;-73
2022/04/27 09:59:09;;;;;;;18.48;4.80;;;11.60;93.20;;;;;;4865486;29;20037;-72
2022/04/27 10:01:36;;;;;;;16.70;3.25;;;11.30;93.20;;;;;;4878798;29;20051;-75
2022/04/27 10:04:06;;;;;;;21.13;4.38;;;11.50;92.30;;;;;;4864205;29;20485;-75
2022/04/27 10:06:34;;;;;;;16.95;3.95;;;11.40;92.80;;;;;;4877353;29;20111;-74
2022/04/27 10:09:00;;;;;;;27.13;3.97;;;;;;;;;;4848776;29;20052;-74
2022/04/27 10:11:31;;;;;;;19.15;3.40;;;10.40;96.40;;;;;;4877731;29;20048;-73
2022/04/27 10:13:57;;;;;;;12.30;3.15;;;;;;;;;;4891626;29;20049;-73
2022/04/27 10:16:27;;;;;;;19.80;4.05;;;11.50;93.40;;;;;;4863904;29;20040;-75
2022/04/27 10:18:53;;;;;;;19.65;4.25;;;;;;;;;;4873850;29;20041;-75
2022/04/27 10:21:39;;;;;;;27.27;4.05;;;11.40;93.30;;;;;;4863954;29;20108;-75
2022/04/27 10:24:12;;;;;;;13.43;3.42;;;10.60;95.90;;;;;;4863201;29;20176;-75
2022/04/27 10:26:39;;;;;;;21.60;3.63;;;;;;;;;;4893337;29;20071;-75
2022/04/27 10:29:06;;;;;;;17.85;3.55;;;11.10;92.90;;;;;;4848552;29;20052;-72
2022/04/27 10:31:55;;;;;;;19.73;4.63;;;;;;;;;;4877546;29;20037;-71
2022/04/27 10:34:23;;;;;;;16.92;3.72;;;11.40;93.00;;;;;;4861885;29;20052;-71
2022/04/27 10:36:57;;;;;;;17.17;3.67;;;11.40;92.70;;;;;;4872232;29;20043;-76
2022/04/27 10:39:27;;;;;;;15.98;3.47;;;;;;;;;;4872760;29;20036;-75
2022/04/27 10:42:03;;;;;;;17.63;3.20;;;11.20;92.60;;;;;;4851728;29;20405;-73
2022/04/27 10:44:47;;;;;;;14.18;3.42;;;11.30;92.10;;;;;;4873709;29;20045;-74
2022/04/27 10:47:21;;;;;;;15.57;3.20;;;11.40;92.70;;;;;;4855859;29;20079;-74
2022/04/27 10:50:08;;;;;;;22.63;3.92;;;11.40;92.20;;;;;;4892737;29;20045;-74
2022/04/27 10:52:52;;;;;;;22.85;3.50;;;11.40;92.40;;;;;;4877363;29;20041;-74
2022/04/27 10:55:40;;;;;;;17.45;4.03;;;11.30;91.70;;;;;;4851347;29;20049;-73
2022/04/27 10:58:12;;;;;;;14.38;3.65;;;;;;;;;;4891979;29;20037;-73
2022/04/27 11:01:03;;;;;;;15.20;3.47;;;11.50;91.60;;;;;;4852074;29;20040;-74
2022/04/27 11:03:30;;;;;;;17.77;3.08;;;11.70;91.70;;;;;;4875905;29;20052;-74
2022/04/27 11:06:01;;;;;;;16.35;3.53;;;11.70;90.90;;;;;;4868138;29;20056;-74
2022/04/27 11:08:32;;;;;;;16.70;3.10;;;11.80;90.90;;;;;;4876183;29;20048;-74
2022/04/27 11:11:03;;;;;;;16.50;3.47;;;;;;;;;;4878534;29;20045;-74
2022/04/27 11:13:33;;;;;;;26.13;3.97;;;;;;;;;;4876474;29;20131;-73
2022/04/27 11:16:09;;;;;;;11.25;3.40;;;11.80;91.60;;;;;;4857108;29;20490;-74
2022/04/27 11:18:51;;;;;;;18.65;3.63;;;;;;;;;;4865909;29;20044;-74
2022/04/27 11:21:21;;;;;;;18.23;3.90;;;11.90;91.20;;;;;;4880366;29;20037;-73
2022/04/27 11:23:47;;;;;;;16.88;4.15;;;;;;;;;;4880473;29;20497;-73
2022/04/27 11:26:14;;;;;;;21.65;3.90;;;;;;;;;;4864899;29;20041;-74
2022/04/27 11:28:42;;;;;;;17.35;3.60;;;;;;;;;;4884210;29;20048;-74
2022/04/27 11:31:09;;;;;;;16.92;3.50;;;12.20;91.10;;;;;;4890486;29;20052;-74
2022/04/27 11:33:40;;;;;;;20.70;4.05;;;;;;;;;;4892579;29;20052;-74
2022/04/27 11:36:26;;;;;;;18.08;3.92;;;12.20;90.70;;;;;;4896809;29;20076;-74
2022/04/27 11:38:53;;;;;;;15.10;3.38;;;11.80;90.60;;;;;;4874098;29;20165;-74
2022/04/27 11:41:26;;;;;;;12.82;3.00;;;;;;;;;;4898972;29;20072;-74
2022/04/27 11:43:54;;;;;;;;;;;;;;;;;;4878053;29;20040;-73
2022/04/27 11:46:20;;;;;;;17.65;3.50;;;;;;;;;;4877981;29;19923;-73
2022/04/27 11:48:52;;;;;;;16.20;3.40;;;12.30;90.70;;;;;;4881660;29;20037;-73
2022/04/27 11:51:19;;;;;;;16.40;3.65;;;;;;;;;;4879930;29;20045;-74
2022/04/27 11:53:47;;;;;;;16.73;3.75;;;;;;;;;;4872298;29;20489;-75
2022/04/27 11:56:13;;;;;;;18.33;3.25;;;12.40;90.10;;;;;;4876747;29;20060;-75
2022/04/27 11:58:40;;;;;;;14.32;3.50;;;;;;;;;;4889224;29;20072;-75
2022/04/27 12:01:06;;;;;;;17.58;3.67;;;;;;;;;;4873897;29;20085;-76
2022/04/27 12:03:39;;;;;;;19.40;3.67;;;;;;;;;;4879513;29;20049;-75
2022/04/27 12:06:05;;;;;;;20.77;3.92;;;;;;;;;;4879326;29;20048;-74
2022/04/27 12:08:33;;;;;;;16.15;3.63;;;;;;;;;;4859124;29;20141;-74
2022/04/27 12:11:02;;;;;;;19.58;4.53;;;;;;;;;;4898130;29;20052;-74
2022/04/27 12:13:28;;;;;;;18.67;4.22;;;;;;;;;;4860322;29;20044;-75
2022/04/27 12:15:55;;;;;;;21.30;4.78;;;12.70;89.10;;;;;;4871388;29;20150;-75
2022/04/27 12:18:26;;;;;;;16.88;4.00;;;12.30;88.70;;;;;;4861436;29;20040;-74
2022/04/27 12:20:55;;;;;;;19.15;3.70;;;12.50;88.30;;;;;;4872191;29;20047;-71
2022/04/27 12:23:30;;;;;;;17.88;3.40;;;13.50;93.20;;;;;;4858441;29;20076;-73
2022/04/27 12:25:57;;;;;;;13.48;3.50;;;12.60;88.50;;;;;;4878257;29;20052;-75
2022/04/27 12:28:33;;;;;;;15.77;3.53;;;12.70;87.00;;;;;;4861342;29;20412;-74
2022/04/27 12:31:06;;;;;;;14.48;4.00;;;12.60;86.70;;;;;;4851975;29;20074;-75
2022/04/27 12:33:47;;;;;;;14.75;3.38;;;12.60;89.40;;;;;;4895414;29;20076;-75
2022/04/27 12:39:03;;;;;;;14.52;3.83;;;;;;;;;;4874071;29;20041;-74
2022/04/27 12:41:32;;;;;;;16.20;3.65;;;12.60;89.00;;;;;;4872081;29;21487;-76
2022/04/27 12:44:24;;;;;;;14.50;3.60;;;;;;;;;;4894493;29;20550;-75
2022/04/27 12:46:59;;;;;;;15.30;4.20;;;12.40;92.60;;;;;;4867210;29;20047;-75
2022/04/27 12:49:36;;;;;;;19.48;3.80;;;12.70;89.50;;;;;;4869607;29;20049;-75
2022/04/27 12:52:33;;;;;;;15.73;3.50;;;12.80;87.40;;;;;;4891503;29;20041;-77
2022/04/27 12:55:03;;;;;;;22.40;4.22;;;12.90;85.50;;;;;;4854386;29;20128;-75
2022/04/27 12:57:43;;;;;;;14.75;3.65;;;;;;;;;;4893610;29;20045;-75
2022/04/27 13:00:09;;;;;;;13.90;4.03;;;12.50;90.10;;;;;;4887696;29;20099;-76
2022/04/27 13:02:35;;;;;;;13.15;4.03;;;;;;;;;;4890133;29;20554;-75
2022/04/27 13:05:01;;;;;;;14.55;3.40;;;;;;;;;;4865200;29;20072;-76
2022/04/27 13:07:27;;;;;;;16.48;3.60;;;;;;;;;;4867285;29;20120;-75
2022/04/27 13:12:39;;;;;;;17.58;4.38;;;;;;;;;;4893807;29;20040;-75
2022/04/27 13:15:06;;;;;;;18.35;3.90;;;13.20;86.30;;;;;;4886237;29;20071;-76
2022/04/27 13:17:32;;;;;;;16.25;4.15;;;;;;;;;;4867774;29;20077;-75
2022/04/27 13:19:58;;;;;;;19.48;3.80;;;14.00;92.30;;;;;;4836146;29;20449;-75
2022/04/27 13:22:25;;;;;;;14.82;3.28;;;;;;;;;;4872143;29;20123;-75
2022/04/27 13:24:51;;;;;;;15.82;3.97;;;;;;;;;;4895935;29;20577;-75
2022/04/27 13:27:22;;;;;;;13.43;3.95;;;13.80;88.30;;;;;;4869164;29;20139;-75
2022/04/27 13:29:48;;;;;;;18.00;4.60;;;;;;;;;;4850591;29;20041;-74
2022/04/27 13:32:14;;;;;;;17.42;3.75;;;13.60;92.10;;;;;;4887810;29;20040;-74
2022/04/27 13:34:40;;;;;;;13.55;4.10;;;;;;;;;;4850837;29;20044;-75
2022/04/27 13:37:07;;;;;;;16.58;3.70;;;;;;;;;;4853564;29;20041;-75
2022/04/27 13:39:33;;;;;;;12.38;3.90;;;;;;;;;;4879448;29;20501;-75
2022/04/27 13:41:59;;;;;;;15.00;3.10;;;;;;;;;;4841336;29;20095;-73
2022/04/27 13:44:25;;;;;;;18.92;3.97;;;;;;;;;;4865335;29;20045;-73
2022/04/27 13:46:52;;;;;;;17.48;4.65;;;;;;;;;;4890408;29;20118;-73
2022/04/27 13:49:19;;;;;;;14.25;3.72;;;;;;;;;;4871678;29;20073;-72
2022/04/27 13:51:46;;;;;;;16.13;3.75;;;13.60;86.00;;;;;;4861281;29;20068;-70
2022/04/27 13:54:14;;;;;;;13.27;3.38;;;;;;;;;;4865124;29;20437;-73
2022/04/27 13:56:40;;;;;;;12.55;3.78;;;;;;;;;;4889931;29;20044;-72
2022/04/27 13:59:06;;;;;;;17.55;3.80;;;;;;;;;;4894205;29;20081;-70
2022/04/27 14:01:32;;;;;;;21.45;4.22;;;;;;;;;;4877477;29;20110;-71
2022/04/27 14:03:58;;;;;;;14.45;3.67;;;;;;;;;;4848958;29;20409;-70
2022/04/27 14:06:24;;;;;;;14.43;3.70;;;13.80;91.90;;;;;;4862968;29;20048;-71
2022/04/27 14:08:51;;;;;;;15.98;3.70;;;;;;;;;;4877870;29;20045;-71
2022/04/27 14:14:01;;;;;;;20.73;4.20;;;;;;;;;;4872651;29;20482;-71
2022/04/27 14:19:12;;;;;;;19.25;3.95;;;;;;;;;;4864004;29;20060;-73
2022/04/27 14:21:38;;;;;;;17.27;3.58;;;;;;;;;;4863756;29;20041;-73
2022/04/27 14:24:04;;;;;;;23.05;3.95;;;13.50;91.00;;;;;;4861118;29;20076;-73
2022/04/27 14:26:30;;;;;;;23.13;4.50;;;;;;;;;;4869076;29;20045;-73
2022/04/27 14:28:56;;;;;;;15.82;3.60;;;;;;;;;;4877213;29;20044;-73